sensor_id;sensor_type;location;lat;lon;timestamp;temperature;humidity
15426;DHT22;7812;50.072;7.036;2024-03-23T00:52:31;9.00;99.90
15426;DHT22;7812;50.072;7.036;2024-03-23T00:54:57;9.10;99.90
15426;DHT22;7812;50.072;7.036;2024-03-23T00:57:22;9.20;99.90
15426;DHT22;7812;50.072;7.036;2024-03-23T00:59:48;9.10;99.90
15426;DHT22;7812;50.072;7.036;2024-03-23T01:02:13;9.00;99.90
15426;DHT22;7812;50.072;7.036;2024-03-23T01:04:39;9.00;99.90
15426;DHT22;7812;50.072;7.036;2024-03-23T01:07:05;8.80;99.90
15426;DHT22;7812;50.072;7.036;2024-03-23T01:09:30;8.70;99.90
15426;DHT22;7812;50.072;7.036;2024-03-23T01:11:56;9.00;99.90
15426;DHT22;7812;50.072;7.036;2024-03-23T01:14:21;9.00;99.90
15426;DHT22;7812;50.072;7.036;2024-03-23T01:16:50;9.10;99.90
15426;DHT22;7812;50.072;7.036;2024-03-23T01:19:16;9.10;99.90
15426;DHT22;7812;50.072;7.036;2024-03-23T01:21:41;9.00;99.90
15426;DHT22;7812;50.072;7.036;2024-03-23T01:24:08;8.80;99.90
15426;DHT22;7812;50.072;7.036;2024-03-23T01:26:36;8.70;99.90
15426;DHT22;7812;50.072;7.036;2024-03-23T01:29:02;8.70;99.90
15426;DHT22;7812;50.072;7.036;2024-03-23T01:31:28;8.80;99.90
15426;DHT22;7812;50.072;7.036;2024-03-23T01:33:54;8.70;99.90
15426;DHT22;7812;50.072;7.036;2024-03-23T01:36:19;8.70;99.90
15426;DHT22;7812;50.072;7.036;2024-03-23T01:38:45;8.70;99.90
15426;DHT22;7812;50.072;7.036;2024-03-23T01:41:11;8.50;99.90
15426;DHT22;7812;50.072;7.036;2024-03-23T01:43:36;8.50;99.90
15426;DHT22;7812;50.072;7.036;2024-03-23T01:46:02;8.70;99.90
15426;DHT22;7812;50.072;7.036;2024-03-23T01:48:28;8.80;99.90
15426;DHT22;7812;50.072;7.036;2024-03-23T01:50:54;9.00;99.90
15426;DHT22;7812;50.072;7.036;2024-03-23T01:53:20;8.90;99.90
15426;DHT22;7812;50.072;7.036;2024-03-23T01:55:48;9.00;99.90
15426;DHT22;7812;50.072;7.036;2024-03-23T01:58:13;9.00;99.90
15426;DHT22;7812;50.072;7.036;2024-03-23T02:00:39;8.90;99.90
15426;DHT22;7812;50.072;7.036;2024-03-23T02:03:22;8.70;99.90
15426;DHT22;7812;50.072;7.036;2024-03-23T02:05:49;8.70;99.90
15426;DHT22;7812;50.072;7.036;2024-03-23T02:08:17;8.50;99.90
15426;DHT22;7812;50.072;7.036;2024-03-23T02:10:43;8.30;99.90
15426;DHT22;7812;50.072;7.036;2024-03-23T02:13:09;8.30;99.90
15426;DHT22;7812;50.072;7.036;2024-03-23T02:15:35;8.30;99.90
15426;DHT22;7812;50.072;7.036;2024-03-23T02:18:00;8.30;99.90
15426;DHT22;7812;50.072;7.036;2024-03-23T02:20:26;8.30;99.90
15426;DHT22;7812;50.072;7.036;2024-03-23T02:22:53;8.40;99.90
15426;DHT22;7812;50.072;7.036;2024-03-23T02:25:19;8.40;99.90
15426;DHT22;7812;50.072;7.036;2024-03-23T02:27:44;8.40;99.90
15426;DHT22;7812;50.072;7.036;2024-03-23T02:30:10;8.30;99.90
15426;DHT22;7812;50.072;7.036;2024-03-23T02:32:36;8.30;99.90
15426;DHT22;7812;50.072;7.036;2024-03-23T02:35:01;8.10;99.90
15426;DHT22;7812;50.072;7.036;2024-03-23T02:37:27;7.90;99.90
15426;DHT22;7812;50.072;7.036;2024-03-23T02:39:53;7.80;99.90
15426;DHT22;7812;50.072;7.036;2024-03-23T02:42:18;7.80;99.90
15426;DHT22;7812;50.072;7.036;2024-03-23T02:44:47;7.70;99.90
15426;DHT22;7812;50.072;7.036;2024-03-23T02:47:13;7.50;99.90
15426;DHT22;7812;50.072;7.036;2024-03-23T02:49:38;7.50;99.90
15426;DHT22;7812;50.072;7.036;2024-03-23T02:52:04;7.40;99.90
15426;DHT22;7812;50.072;7.036;2024-03-23T02:54:29;7.40;99.90
15426;DHT22;7812;50.072;7.036;2024-03-23T02:56:55;7.40;99.90
15426;DHT22;7812;50.072;7.036;2024-03-23T02:59:21;7.40;99.90
15426;DHT22;7812;50.072;7.036;2024-03-23T03:01:46;7.40;99.90
15426;DHT22;7812;50.072;7.036;2024-03-23T03:04:12;7.40;99.90
15426;DHT22;7812;50.072;7.036;2024-03-23T03:06:38;7.30;99.90
15426;DHT22;7812;50.072;7.036;2024-03-23T03:09:03;7.40;99.90
15426;DHT22;7812;50.072;7.036;2024-03-23T03:11:30;7.50;99.90
15426;DHT22;7812;50.072;7.036;2024-03-23T03:13:55;7.40;99.90
15426;DHT22;7812;50.072;7.036;2024-03-23T03:16:21;7.20;99.90
15426;DHT22;7812;50.072;7.036;2024-03-23T03:18:46;7.20;99.90
15426;DHT22;7812;50.072;7.036;2024-03-23T03:21:12;7.10;99.90
15426;DHT22;7812;50.072;7.036;2024-03-23T03:23:38;7.30;99.90
15426;DHT22;7812;50.072;7.036;2024-03-23T03:26:04;7.40;99.90
15426;DHT22;7812;50.072;7.036;2024-03-23T03:28:31;7.30;99.90
15426;DHT22;7812;50.072;7.036;2024-03-23T03:30:58;7.30;99.90
15426;DHT22;7812;50.072;7.036;2024-03-23T03:33:25;7.20;99.90
15426;DHT22;7812;50.072;7.036;2024-03-23T03:35:50;7.00;99.90
15426;DHT22;7812;50.072;7.036;2024-03-23T03:38:18;6.90;99.90
15426;DHT22;7812;50.072;7.036;2024-03-23T03:40:43;6.90;99.90
15426;DHT22;7812;50.072;7.036;2024-03-23T03:43:09;6.90;99.90
15426;DHT22;7812;50.072;7.036;2024-03-23T03:45:35;7.10;99.90
15426;DHT22;7812;50.072;7.036;2024-03-23T03:48:00;7.10;99.90
15426;DHT22;7812;50.072;7.036;2024-03-23T03:50:26;7.00;99.90
15426;DHT22;7812;50.072;7.036;2024-03-23T03:52:52;7.00;99.90
15426;DHT22;7812;50.072;7.036;2024-03-23T03:55:17;7.00;99.90
15426;DHT22;7812;50.072;7.036;2024-03-23T03:57:43;6.90;99.90
15426;DHT22;7812;50.072;7.036;2024-03-23T04:00:09;6.80;99.90
15426;DHT22;7812;50.072;7.036;2024-03-23T04:02:38;6.80;99.90
15426;DHT22;7812;50.072;7.036;2024-03-23T04:05:04;6.70;99.90
15426;DHT22;7812;50.072;7.036;2024-03-23T04:07:30;6.70;99.90
15426;DHT22;7812;50.072;7.036;2024-03-23T04:09:56;6.70;99.90
15426;DHT22;7812;50.072;7.036;2024-03-23T04:12:21;6.70;99.90
15426;DHT22;7812;50.072;7.036;2024-03-23T04:14:47;6.60;99.90
15426;DHT22;7812;50.072;7.036;2024-03-23T04:17:12;6.50;99.90
15426;DHT22;7812;50.072;7.036;2024-03-23T04:19:38;6.40;99.90
15426;DHT22;7812;50.072;7.036;2024-03-23T04:22:04;6.40;99.90
15426;DHT22;7812;50.072;7.036;2024-03-23T04:24:30;6.30;99.90
15426;DHT22;7812;50.072;7.036;2024-03-23T04:26:56;6.40;99.90
15426;DHT22;7812;50.072;7.036;2024-03-23T04:29:22;6.30;99.90
15426;DHT22;7812;50.072;7.036;2024-03-23T04:31:47;6.30;99.90
15426;DHT22;7812;50.072;7.036;2024-03-23T04:34:13;6.30;99.90
15426;DHT22;7812;50.072;7.036;2024-03-23T04:36:39;6.30;99.90
15426;DHT22;7812;50.072;7.036;2024-03-23T04:39:05;6.20;99.90
15426;DHT22;7812;50.072;7.036;2024-03-23T04:41:34;6.30;99.90
15426;DHT22;7812;50.072;7.036;2024-03-23T04:44:00;6.40;99.90
15426;DHT22;7812;50.072;7.036;2024-03-23T04:46:26;6.30;99.90
15426;DHT22;7812;50.072;7.036;2024-03-23T04:48:51;6.20;99.90
15426;DHT22;7812;50.072;7.036;2024-03-23T04:51:21;6.30;99.90
15426;DHT22;7812;50.072;7.036;2024-03-23T04:53:47;6.40;99.90
15426;DHT22;7812;50.072;7.036;2024-03-23T04:56:14;6.30;99.90
15426;DHT22;7812;50.072;7.036;2024-03-23T04:58:39;6.10;99.90
15426;DHT22;7812;50.072;7.036;2024-03-23T05:01:05;6.00;99.90
15426;DHT22;7812;50.072;7.036;2024-03-23T05:03:31;6.20;99.90
15426;DHT22;7812;50.072;7.036;2024-03-23T05:05:56;6.20;99.90
15426;DHT22;7812;50.072;7.036;2024-03-23T05:08:22;6.20;99.90
15426;DHT22;7812;50.072;7.036;2024-03-23T05:10:48;6.30;99.90
15426;DHT22;7812;50.072;7.036;2024-03-23T05:13:13;6.30;99.90
15426;DHT22;7812;50.072;7.036;2024-03-23T05:15:39;6.30;99.90
15426;DHT22;7812;50.072;7.036;2024-03-23T05:18:05;6.40;99.90
15426;DHT22;7812;50.072;7.036;2024-03-23T05:20:31;6.40;99.90
15426;DHT22;7812;50.072;7.036;2024-03-23T05:22:57;6.30;99.90
15426;DHT22;7812;50.072;7.036;2024-03-23T05:25:23;6.40;99.90
15426;DHT22;7812;50.072;7.036;2024-03-23T05:27:49;6.50;99.90
15426;DHT22;7812;50.072;7.036;2024-03-23T05:30:15;6.70;99.90
15426;DHT22;7812;50.072;7.036;2024-03-23T05:32:40;6.60;99.90
15426;DHT22;7812;50.072;7.036;2024-03-23T05:35:10;6.60;99.90
15426;DHT22;7812;50.072;7.036;2024-03-23T05:37:35;6.70;99.90
15426;DHT22;7812;50.072;7.036;2024-03-23T05:40:02;6.60;99.90
15426;DHT22;7812;50.072;7.036;2024-03-23T05:42:29;6.70;99.90
15426;DHT22;7812;50.072;7.036;2024-03-23T05:44:55;6.80;99.90
15426;DHT22;7812;50.072;7.036;2024-03-23T05:47:20;6.80;99.90
15426;DHT22;7812;50.072;7.036;2024-03-23T05:49:46;6.90;99.90
15426;DHT22;7812;50.072;7.036;2024-03-23T05:52:13;7.10;99.90
15426;DHT22;7812;50.072;7.036;2024-03-23T05:54:39;7.10;99.90
15426;DHT22;7812;50.072;7.036;2024-03-23T05:57:05;7.00;99.90
15426;DHT22;7812;50.072;7.036;2024-03-23T05:59:33;6.90;99.90
15426;DHT22;7812;50.072;7.036;2024-03-23T06:01:58;6.80;99.90
15426;DHT22;7812;50.072;7.036;2024-03-23T06:04:24;6.70;99.90
15426;DHT22;7812;50.072;7.036;2024-03-23T06:06:53;6.50;99.90
15426;DHT22;7812;50.072;7.036;2024-03-23T06:09:19;6.50;99.90
15426;DHT22;7812;50.072;7.036;2024-03-23T06:11:45;6.50;99.90
15426;DHT22;7812;50.072;7.036;2024-03-23T06:14:10;6.50;99.90
15426;DHT22;7812;50.072;7.036;2024-03-23T06:16:36;6.70;99.90
15426;DHT22;7812;50.072;7.036;2024-03-23T06:19:02;6.50;99.90
15426;DHT22;7812;50.072;7.036;2024-03-23T06:21:29;6.30;99.90
15426;DHT22;7812;50.072;7.036;2024-03-23T06:23:55;6.20;99.90
15426;DHT22;7812;50.072;7.036;2024-03-23T06:26:21;6.10;99.90
15426;DHT22;7812;50.072;7.036;2024-03-23T06:28:49;6.20;99.90
15426;DHT22;7812;50.072;7.036;2024-03-23T06:31:15;6.40;99.90
15426;DHT22;7812;50.072;7.036;2024-03-23T06:33:41;6.40;99.90
15426;DHT22;7812;50.072;7.036;2024-03-23T06:36:09;6.40;99.90
15426;DHT22;7812;50.072;7.036;2024-03-23T06:38:35;6.50;99.90
15426;DHT22;7812;50.072;7.036;2024-03-23T06:41:05;6.40;99.90
15426;DHT22;7812;50.072;7.036;2024-03-23T06:43:31;6.40;99.90
15426;DHT22;7812;50.072;7.036;2024-03-23T06:45:57;7.10;99.90
15426;DHT22;7812;50.072;7.036;2024-03-23T06:48:23;7.40;99.90
15426;DHT22;7812;50.072;7.036;2024-03-23T06:50:49;7.60;99.90
15426;DHT22;7812;50.072;7.036;2024-03-23T06:53:15;8.20;99.90
15426;DHT22;7812;50.072;7.036;2024-03-23T06:55:40;7.80;99.90
15426;DHT22;7812;50.072;7.036;2024-03-23T06:58:07;8.40;99.90
15426;DHT22;7812;50.072;7.036;2024-03-23T07:00:32;8.60;99.90
15426;DHT22;7812;50.072;7.036;2024-03-23T07:02:59;8.40;99.90
15426;DHT22;7812;50.072;7.036;2024-03-23T07:05:24;8.40;99.90
15426;DHT22;7812;50.072;7.036;2024-03-23T07:07:50;8.30;99.90
15426;DHT22;7812;50.072;7.036;2024-03-23T07:10:16;8.50;99.90
15426;DHT22;7812;50.072;7.036;2024-03-23T07:12:41;8.20;99.90
15426;DHT22;7812;50.072;7.036;2024-03-23T07:15:07;7.80;99.90
15426;DHT22;7812;50.072;7.036;2024-03-23T07:17:36;7.80;99.90
15426;DHT22;7812;50.072;7.036;2024-03-23T07:20:02;8.30;99.90
15426;DHT22;7812;50.072;7.036;2024-03-23T07:22:30;9.00;99.90
15426;DHT22;7812;50.072;7.036;2024-03-23T07:24:56;9.60;99.90
15426;DHT22;7812;50.072;7.036;2024-03-23T07:27:21;9.80;99.90
15426;DHT22;7812;50.072;7.036;2024-03-23T07:29:49;10.20;99.90
15426;DHT22;7812;50.072;7.036;2024-03-23T07:32:14;10.40;99.90
15426;DHT22;7812;50.072;7.036;2024-03-23T07:34:40;10.10;99.90
15426;DHT22;7812;50.072;7.036;2024-03-23T07:37:06;10.50;99.90
15426;DHT22;7812;50.072;7.036;2024-03-23T07:39:31;10.90;99.90
15426;DHT22;7812;50.072;7.036;2024-03-23T07:41:59;11.20;99.90
15426;DHT22;7812;50.072;7.036;2024-03-23T07:44:24;11.20;99.90
15426;DHT22;7812;50.072;7.036;2024-03-23T07:46:50;11.10;99.90
15426;DHT22;7812;50.072;7.036;2024-03-23T07:49:16;11.30;99.90
15426;DHT22;7812;50.072;7.036;2024-03-23T07:51:41;11.60;99.90
15426;DHT22;7812;50.072;7.036;2024-03-23T07:54:07;12.10;99.90
15426;DHT22;7812;50.072;7.036;2024-03-23T07:56:33;11.90;99.90
15426;DHT22;7812;50.072;7.036;2024-03-23T07:58:59;11.90;99.90
15426;DHT22;7812;50.072;7.036;2024-03-23T08:01:25;12.20;99.90
15426;DHT22;7812;50.072;7.036;2024-03-23T08:03:51;12.70;99.90
15426;DHT22;7812;50.072;7.036;2024-03-23T08:06:18;12.80;99.90
15426;DHT22;7812;50.072;7.036;2024-03-23T08:08:50;11.50;99.90
15426;DHT22;7812;50.072;7.036;2024-03-23T08:11:17;11.30;99.90
15426;DHT22;7812;50.072;7.036;2024-03-23T08:13:44;10.30;99.90
15426;DHT22;7812;50.072;7.036;2024-03-23T08:16:10;10.40;99.90
15426;DHT22;7812;50.072;7.036;2024-03-23T08:18:36;11.80;99.90
15426;DHT22;7812;50.072;7.036;2024-03-23T08:21:04;12.30;99.90
15426;DHT22;7812;50.072;7.036;2024-03-23T08:23:31;11.30;99.90
15426;DHT22;7812;50.072;7.036;2024-03-23T08:26:12;10.20;99.90
15426;DHT22;7812;50.072;7.036;2024-03-23T08:28:38;9.40;99.90
15426;DHT22;7812;50.072;7.036;2024-03-23T08:31:09;9.80;99.90
15426;DHT22;7812;50.072;7.036;2024-03-23T08:33:36;9.90;99.90
15426;DHT22;7812;50.072;7.036;2024-03-23T08:36:03;10.00;99.90
15426;DHT22;7812;50.072;7.036;2024-03-23T08:38:29;10.00;99.90
15426;DHT22;7812;50.072;7.036;2024-03-23T08:41:08;9.60;99.90
15426;DHT22;7812;50.072;7.036;2024-03-23T08:43:40;9.40;99.90
15426;DHT22;7812;50.072;7.036;2024-03-23T08:46:14;9.60;99.90
15426;DHT22;7812;50.072;7.036;2024-03-23T08:48:45;10.10;99.90
15426;DHT22;7812;50.072;7.036;2024-03-23T08:51:12;8.80;99.90
15426;DHT22;7812;50.072;7.036;2024-03-23T08:53:38;6.60;99.90
15426;DHT22;7812;50.072;7.036;2024-03-23T08:56:05;5.30;99.90
15426;DHT22;7812;50.072;7.036;2024-03-23T08:58:35;4.80;99.90
15426;DHT22;7812;50.072;7.036;2024-03-23T09:03:33;4.70;99.90
15426;DHT22;7812;50.072;7.036;2024-03-23T09:06:00;4.70;99.90
15426;DHT22;7812;50.072;7.036;2024-03-23T09:08:26;4.70;99.90
15426;DHT22;7812;50.072;7.036;2024-03-23T09:10:53;4.80;99.90
15426;DHT22;7812;50.072;7.036;2024-03-23T09:13:18;5.00;99.90
15426;DHT22;7812;50.072;7.036;2024-03-23T09:15:49;4.90;99.90
15426;DHT22;7812;50.072;7.036;2024-03-23T09:18:15;4.90;99.90
15426;DHT22;7812;50.072;7.036;2024-03-23T09:20:40;4.90;99.90
15426;DHT22;7812;50.072;7.036;2024-03-23T09:23:06;4.60;99.90
15426;DHT22;7812;50.072;7.036;2024-03-23T09:25:32;4.60;99.90
15426;DHT22;7812;50.072;7.036;2024-03-23T09:27:58;4.80;99.90
15426;DHT22;7812;50.072;7.036;2024-03-23T09:30:24;5.00;99.90
15426;DHT22;7812;50.072;7.036;2024-03-23T09:32:49;5.10;99.90
15426;DHT22;7812;50.072;7.036;2024-03-23T09:35:15;5.20;99.90
15426;DHT22;7812;50.072;7.036;2024-03-23T09:37:41;5.20;99.90
15426;DHT22;7812;50.072;7.036;2024-03-23T09:40:09;5.30;99.90
15426;DHT22;7812;50.072;7.036;2024-03-23T09:42:36;5.50;99.90
15426;DHT22;7812;50.072;7.036;2024-03-23T09:45:01;5.80;99.90
15426;DHT22;7812;50.072;7.036;2024-03-23T09:47:28;6.60;99.90
15426;DHT22;7812;50.072;7.036;2024-03-23T09:49:54;8.70;99.90
15426;DHT22;7812;50.072;7.036;2024-03-23T09:52:20;10.60;99.90
15426;DHT22;7812;50.072;7.036;2024-03-23T09:54:46;11.90;99.90
15426;DHT22;7812;50.072;7.036;2024-03-23T09:57:11;12.50;99.90
15426;DHT22;7812;50.072;7.036;2024-03-23T09:59:37;12.60;99.90
15426;DHT22;7812;50.072;7.036;2024-03-23T10:02:03;14.30;99.90
15426;DHT22;7812;50.072;7.036;2024-03-23T10:04:42;14.20;99.90
15426;DHT22;7812;50.072;7.036;2024-03-23T10:07:15;13.50;99.90
15426;DHT22;7812;50.072;7.036;2024-03-23T10:09:44;12.00;99.90
15426;DHT22;7812;50.072;7.036;2024-03-23T10:12:15;13.30;99.90
15426;DHT22;7812;50.072;7.036;2024-03-23T10:14:41;15.60;99.90
15426;DHT22;7812;50.072;7.036;2024-03-23T10:17:19;18.10;99.90
15426;DHT22;7812;50.072;7.036;2024-03-23T10:19:49;17.50;99.90
15426;DHT22;7812;50.072;7.036;2024-03-23T10:22:19;18.00;99.90
15426;DHT22;7812;50.072;7.036;2024-03-23T10:24:46;20.00;99.90
15426;DHT22;7812;50.072;7.036;2024-03-23T10:27:15;18.10;99.90
15426;DHT22;7812;50.072;7.036;2024-03-23T10:29:43;18.00;99.90
15426;DHT22;7812;50.072;7.036;2024-03-23T10:32:10;17.50;99.90
15426;DHT22;7812;50.072;7.036;2024-03-23T10:34:37;17.20;99.90
15426;DHT22;7812;50.072;7.036;2024-03-23T10:37:04;16.40;99.90
15426;DHT22;7812;50.072;7.036;2024-03-23T10:39:37;15.00;99.90
15426;DHT22;7812;50.072;7.036;2024-03-23T10:42:07;13.70;99.90
15426;DHT22;7812;50.072;7.036;2024-03-23T10:44:34;12.50;99.90
15426;DHT22;7812;50.072;7.036;2024-03-23T10:47:01;12.30;99.90
15426;DHT22;7812;50.072;7.036;2024-03-23T10:51:58;13.80;99.90
15426;DHT22;7812;50.072;7.036;2024-03-23T10:54:25;13.70;99.90
15426;DHT22;7812;50.072;7.036;2024-03-23T10:56:56;13.20;99.90
15426;DHT22;7812;50.072;7.036;2024-03-23T10:59:23;14.10;99.90
15426;DHT22;7812;50.072;7.036;2024-03-23T11:04:31;14.40;99.90
15426;DHT22;7812;50.072;7.036;2024-03-23T11:06:57;13.30;99.90
15426;DHT22;7812;50.072;7.036;2024-03-23T11:09:42;12.50;99.90
15426;DHT22;7812;50.072;7.036;2024-03-23T11:14:49;10.50;99.90
15426;DHT22;7812;50.072;7.036;2024-03-23T11:17:20;9.60;99.90
15426;DHT22;7812;50.072;7.036;2024-03-23T11:20:01;8.40;99.90
15426;DHT22;7812;50.072;7.036;2024-03-23T11:27:52;5.60;99.90
15426;DHT22;7812;50.072;7.036;2024-03-23T11:30:21;5.40;99.90
15426;DHT22;7812;50.072;7.036;2024-03-23T11:32:52;5.80;99.90
15426;DHT22;7812;50.072;7.036;2024-03-23T11:38:13;6.00;99.90
15426;DHT22;7812;50.072;7.036;2024-03-23T11:40:43;6.10;99.90
15426;DHT22;7812;50.072;7.036;2024-03-23T11:43:10;6.30;99.90
15426;DHT22;7812;50.072;7.036;2024-03-23T11:45:44;6.60;99.90
15426;DHT22;7812;50.072;7.036;2024-03-23T11:50:43;7.00;99.90
15426;DHT22;7812;50.072;7.036;2024-03-23T11:55:50;7.60;99.90
15426;DHT22;7812;50.072;7.036;2024-03-23T11:58:26;7.90;99.90
15426;DHT22;7812;50.072;7.036;2024-03-23T12:03:18;9.30;99.90
15426;DHT22;7812;50.072;7.036;2024-03-23T12:05:50;9.70;99.90
15426;DHT22;7812;50.072;7.036;2024-03-23T12:11:22;9.80;99.90
15426;DHT22;7812;50.072;7.036;2024-03-23T12:13:49;8.70;99.90
15426;DHT22;7812;50.072;7.036;2024-03-23T12:16:20;7.70;99.90
15426;DHT22;7812;50.072;7.036;2024-03-23T12:18:50;6.60;99.90
15426;DHT22;7812;50.072;7.036;2024-03-23T12:21:16;6.20;99.90
15426;DHT22;7812;50.072;7.036;2024-03-23T12:23:43;5.80;99.90
15426;DHT22;7812;50.072;7.036;2024-03-23T12:26:13;6.50;99.90
15426;DHT22;7812;50.072;7.036;2024-03-23T12:28:39;7.50;99.90
15426;DHT22;7812;50.072;7.036;2024-03-23T12:31:05;8.10;99.90
15426;DHT22;7812;50.072;7.036;2024-03-23T12:33:33;8.70;99.90
15426;DHT22;7812;50.072;7.036;2024-03-23T12:35:59;9.60;99.90
15426;DHT22;7812;50.072;7.036;2024-03-23T12:38:25;10.80;99.90
15426;DHT22;7812;50.072;7.036;2024-03-23T12:40:50;12.10;99.90
15426;DHT22;7812;50.072;7.036;2024-03-23T12:43:17;12.70;99.90
15426;DHT22;7812;50.072;7.036;2024-03-23T12:45:49;13.00;99.90
15426;DHT22;7812;50.072;7.036;2024-03-23T12:48:16;12.80;99.90
15426;DHT22;7812;50.072;7.036;2024-03-23T12:50:41;13.00;99.90
15426;DHT22;7812;50.072;7.036;2024-03-23T12:53:07;14.00;99.90
15426;DHT22;7812;50.072;7.036;2024-03-23T12:55:35;13.80;99.90
15426;DHT22;7812;50.072;7.036;2024-03-23T12:58:01;13.90;99.90
15426;DHT22;7812;50.072;7.036;2024-03-23T13:00:26;14.30;99.90
15426;DHT22;7812;50.072;7.036;2024-03-23T13:02:52;14.30;99.90
15426;DHT22;7812;50.072;7.036;2024-03-23T13:05:17;13.50;99.90
15426;DHT22;7812;50.072;7.036;2024-03-23T13:07:43;12.30;99.90
15426;DHT22;7812;50.072;7.036;2024-03-23T13:10:09;11.20;99.90
15426;DHT22;7812;50.072;7.036;2024-03-23T13:12:34;10.60;99.90
15426;DHT22;7812;50.072;7.036;2024-03-23T13:15:01;10.20;99.90
15426;DHT22;7812;50.072;7.036;2024-03-23T13:17:27;9.70;99.90
15426;DHT22;7812;50.072;7.036;2024-03-23T13:19:53;9.20;99.90
15426;DHT22;7812;50.072;7.036;2024-03-23T13:22:19;8.70;99.90
15426;DHT22;7812;50.072;7.036;2024-03-23T13:24:45;8.30;99.90
15426;DHT22;7812;50.072;7.036;2024-03-23T13:27:10;8.00;99.90
15426;DHT22;7812;50.072;7.036;2024-03-23T13:29:36;8.30;99.90
15426;DHT22;7812;50.072;7.036;2024-03-23T13:32:03;9.10;99.90
15426;DHT22;7812;50.072;7.036;2024-03-23T13:34:29;9.90;99.90
15426;DHT22;7812;50.072;7.036;2024-03-23T13:36:55;9.90;99.90
15426;DHT22;7812;50.072;7.036;2024-03-23T13:39:23;9.10;99.90
15426;DHT22;7812;50.072;7.036;2024-03-23T13:41:49;8.70;99.90
15426;DHT22;7812;50.072;7.036;2024-03-23T13:44:14;8.40;99.90
15426;DHT22;7812;50.072;7.036;2024-03-23T13:46:42;8.10;99.90
15426;DHT22;7812;50.072;7.036;2024-03-23T13:51:53;8.00;99.90
15426;DHT22;7812;50.072;7.036;2024-03-23T13:54:19;8.60;99.90
15426;DHT22;7812;50.072;7.036;2024-03-23T13:56:48;9.00;99.90
15426;DHT22;7812;50.072;7.036;2024-03-23T13:59:13;8.60;99.90
15426;DHT22;7812;50.072;7.036;2024-03-23T14:01:39;8.50;99.90
15426;DHT22;7812;50.072;7.036;2024-03-23T14:04:06;8.60;99.90
15426;DHT22;7812;50.072;7.036;2024-03-23T14:06:32;8.60;99.90
15426;DHT22;7812;50.072;7.036;2024-03-23T14:08:57;8.60;99.90
15426;DHT22;7812;50.072;7.036;2024-03-23T14:11:23;8.50;99.90
15426;DHT22;7812;50.072;7.036;2024-03-23T14:13:48;7.90;99.90
15426;DHT22;7812;50.072;7.036;2024-03-23T14:16:14;7.30;99.90
15426;DHT22;7812;50.072;7.036;2024-03-23T14:18:40;7.30;99.90
15426;DHT22;7812;50.072;7.036;2024-03-23T14:21:05;7.60;99.90
15426;DHT22;7812;50.072;7.036;2024-03-23T14:23:32;7.70;99.90
15426;DHT22;7812;50.072;7.036;2024-03-23T14:26:00;7.90;99.90
15426;DHT22;7812;50.072;7.036;2024-03-23T14:28:26;8.00;99.90
15426;DHT22;7812;50.072;7.036;2024-03-23T14:30:55;7.90;99.90
15426;DHT22;7812;50.072;7.036;2024-03-23T14:33:21;8.10;99.90
15426;DHT22;7812;50.072;7.036;2024-03-23T14:35:53;8.20;99.90
15426;DHT22;7812;50.072;7.036;2024-03-23T14:38:20;8.10;99.90
15426;DHT22;7812;50.072;7.036;2024-03-23T14:40:46;8.00;99.90
15426;DHT22;7812;50.072;7.036;2024-03-23T14:43:12;7.80;99.90
15426;DHT22;7812;50.072;7.036;2024-03-23T14:46:12;8.20;99.90
15426;DHT22;7812;50.072;7.036;2024-03-23T14:48:39;8.50;99.90
15426;DHT22;7812;50.072;7.036;2024-03-23T14:51:05;8.40;99.90
15426;DHT22;7812;50.072;7.036;2024-03-23T14:53:36;8.50;99.90
15426;DHT22;7812;50.072;7.036;2024-03-23T14:56:02;8.80;99.90
15426;DHT22;7812;50.072;7.036;2024-03-23T14:58:29;9.10;99.90
15426;DHT22;7812;50.072;7.036;2024-03-23T15:01:21;9.00;99.90
15426;DHT22;7812;50.072;7.036;2024-03-23T15:03:47;9.20;99.90
15426;DHT22;7812;50.072;7.036;2024-03-23T15:06:13;9.20;99.90
15426;DHT22;7812;50.072;7.036;2024-03-23T15:08:39;9.20;99.90
15426;DHT22;7812;50.072;7.036;2024-03-23T15:11:06;9.10;99.90
15426;DHT22;7812;50.072;7.036;2024-03-23T15:13:35;8.90;99.90
15426;DHT22;7812;50.072;7.036;2024-03-23T15:16:02;8.70;99.90
15426;DHT22;7812;50.072;7.036;2024-03-23T15:18:29;8.40;99.90
15426;DHT22;7812;50.072;7.036;2024-03-23T15:20:56;8.10;99.90
15426;DHT22;7812;50.072;7.036;2024-03-23T15:23:23;8.00;99.90
15426;DHT22;7812;50.072;7.036;2024-03-23T15:25:59;8.10;99.90
15426;DHT22;7812;50.072;7.036;2024-03-23T15:28:26;8.10;99.90
15426;DHT22;7812;50.072;7.036;2024-03-23T15:30:53;8.20;99.90
15426;DHT22;7812;50.072;7.036;2024-03-23T15:33:19;8.10;99.90
15426;DHT22;7812;50.072;7.036;2024-03-23T15:35:45;8.10;99.90
15426;DHT22;7812;50.072;7.036;2024-03-23T15:38:10;8.20;99.90
15426;DHT22;7812;50.072;7.036;2024-03-23T15:40:36;8.20;99.90
15426;DHT22;7812;50.072;7.036;2024-03-23T15:43:02;8.30;99.90
15426;DHT22;7812;50.072;7.036;2024-03-23T15:45:27;8.40;99.90
15426;DHT22;7812;50.072;7.036;2024-03-23T15:47:53;8.30;99.90
15426;DHT22;7812;50.072;7.036;2024-03-23T15:50:19;8.40;99.90
15426;DHT22;7812;50.072;7.036;2024-03-23T15:52:44;8.50;99.90
15426;DHT22;7812;50.072;7.036;2024-03-23T15:55:10;8.60;99.90
15426;DHT22;7812;50.072;7.036;2024-03-23T15:57:36;8.60;99.90
15426;DHT22;7812;50.072;7.036;2024-03-23T16:00:02;8.50;99.90
15426;DHT22;7812;50.072;7.036;2024-03-23T16:02:28;8.40;99.90
15426;DHT22;7812;50.072;7.036;2024-03-23T16:04:54;8.20;99.90
15426;DHT22;7812;50.072;7.036;2024-03-23T16:07:20;8.10;99.90
15426;DHT22;7812;50.072;7.036;2024-03-23T16:09:46;8.00;99.90
15426;DHT22;7812;50.072;7.036;2024-03-23T16:12:12;7.90;99.90
15426;DHT22;7812;50.072;7.036;2024-03-23T16:14:38;7.90;99.90
15426;DHT22;7812;50.072;7.036;2024-03-23T16:17:03;7.90;99.90
15426;DHT22;7812;50.072;7.036;2024-03-23T16:19:29;7.90;99.90
15426;DHT22;7812;50.072;7.036;2024-03-23T16:21:55;7.90;99.90
15426;DHT22;7812;50.072;7.036;2024-03-23T16:24:21;7.90;99.90
15426;DHT22;7812;50.072;7.036;2024-03-23T16:26:47;7.80;99.90
15426;DHT22;7812;50.072;7.036;2024-03-23T16:29:12;7.70;99.90
15426;DHT22;7812;50.072;7.036;2024-03-23T16:31:38;7.70;99.90
15426;DHT22;7812;50.072;7.036;2024-03-23T16:34:04;7.70;99.90
15426;DHT22;7812;50.072;7.036;2024-03-23T16:36:30;7.50;99.90
15426;DHT22;7812;50.072;7.036;2024-03-23T16:38:55;7.30;99.90
15426;DHT22;7812;50.072;7.036;2024-03-23T16:41:21;7.20;99.90
15426;DHT22;7812;50.072;7.036;2024-03-23T16:43:47;7.20;99.90
15426;DHT22;7812;50.072;7.036;2024-03-23T16:46:13;7.30;99.90
15426;DHT22;7812;50.072;7.036;2024-03-23T16:48:43;7.40;99.90
15426;DHT22;7812;50.072;7.036;2024-03-23T16:51:10;7.40;99.90
15426;DHT22;7812;50.072;7.036;2024-03-23T16:53:37;7.40;99.90
15426;DHT22;7812;50.072;7.036;2024-03-23T16:56:08;7.50;99.90
15426;DHT22;7812;50.072;7.036;2024-03-23T16:58:35;7.60;99.90
15426;DHT22;7812;50.072;7.036;2024-03-23T17:03:32;7.80;99.90
15426;DHT22;7812;50.072;7.036;2024-03-23T17:05:58;7.50;99.90
15426;DHT22;7812;50.072;7.036;2024-03-23T17:08:24;7.30;99.90
15426;DHT22;7812;50.072;7.036;2024-03-23T17:10:49;7.00;99.90
15426;DHT22;7812;50.072;7.036;2024-03-23T17:13:15;6.70;99.90
15426;DHT22;7812;50.072;7.036;2024-03-23T17:15:47;6.50;99.90
15426;DHT22;7812;50.072;7.036;2024-03-23T17:18:12;6.10;99.90
15426;DHT22;7812;50.072;7.036;2024-03-23T17:20:39;5.90;99.90
15426;DHT22;7812;50.072;7.036;2024-03-23T17:23:05;6.00;99.90